Terminal Aerodrome Forecast
Issued by NWS Portland, OR

Home | Current Version | Previous Version | Text Only | Print | Product List | Glossary On
Versions: 1 2 3 4 5 6 7 8 9 10 11 12 13
000
FTUS46 KPQR 192342
TAFEUG
TAF
KEUG 192342Z 2000/2024 23012KT P6SM -RA SCT040 OVC070
     FM200400 20007KT 5SM -RA BKN015 OVC030
     FM201300 21010KT 6SM -RA SCT015 OVC030=

USA.gov is the U.S. government's official web portal to all federal, state and local government web resources and services.